ENFL/FRO METAR and TAF weather

Enter ICAO airport designator
Station Type Date Time Source
ENFL METAR 2021/02/27 09:50 UTC NOAA

ENFL 270950Z AUTO 20017KT 3300NDV -RA BKN007/// OVC011/// 06/05 Q1031


Station Type Date Time Source
ENFL Decoded METAR 2021/02/27 09:50 UTC NOAA

Floro, Norway (ENFL) 61-35N 005-02E 9M
Feb 27, 2021 - 04:50 AM EST / 2021.02.27 0950 UTC
Wind: from the SSW (200 degrees) at 20 MPH (17 KT):0
Sky conditions: overcast
Weather: light rain
Temperature: 42 F (6 C)
Dew Point: 41 F (5 C)
Relative Humidity: 93%
Pressure (altimeter): 30.45 in. Hg (1031 hPa)
ob: ENFL 270950Z AUTO 20017KT 3300NDV -RA BKN007/// OVC011/// 06/05 Q1031
cycle: 10

Station Type Date Time Source
ENFL TAF 2010/02/05 07:50 UTC NOAA

METAR ENFL 050750Z 16019KT 140V200 9999 FEW015 SCT030 BKN055 03/M03 Q1011

Example: see airport list